Bathurst Airport


Codes: CZBF/ZBF
Name: Bathurst Airport
City: Bathurst
Country: Canada
Elevation: 193 ft.
Wikipedia:

Photos at Bathurst Airport


   Photos courtesy of SpottingLog. You can add your own sightings and photos by signing up for a free trial today.



C-GAEW, 23-Aug-2023
© Mackenzie Cole


Weather at Bathurst Airport


Time (UTC)DescriptionTempratureWindCloud coverageVisibilityPressureHumidity
13-Jun-2024 03:00Scattered Clouds11°C0 mph, N33%8869m1013hPa99%
13-Jun-2024 06:00Scattered Clouds11°C0 mph, NW39%8470m1013hPa99%
13-Jun-2024 09:00Broken Clouds11°C0 mph, NW58%10000m1012hPa97%
13-Jun-2024 12:00Broken Clouds18°C2 mph, W60%10000m1011hPa74%
13-Jun-2024 15:00Light Rain23°C2 mph, NE56%10000m1010hPa53%
13-Jun-2024 18:00Broken Clouds22°C2 mph, W81%10000m1009hPa60%
13-Jun-2024 21:00Scattered Clouds27°C9 mph, W26%10000m1008hPa40%
14-Jun-2024 00:00Scattered Clouds20°C7 mph, SW49%10000m1009hPa69%
14-Jun-2024 03:00Overcast Clouds18°C13 mph, S100%10000m1009hPa74%
14-Jun-2024 06:00Overcast Clouds17°C9 mph, S100%10000m1008hPa79%
14-Jun-2024 09:00Light Rain17°C13 mph, S100%10000m1006hPa77%
14-Jun-2024 12:00Overcast Clouds20°C11 mph, S100%10000m1005hPa68%
14-Jun-2024 15:00Overcast Clouds27°C13 mph, SW100%10000m1004hPa45%
14-Jun-2024 18:00Overcast Clouds25°C13 mph, SW100%10000m1004hPa52%
14-Jun-2024 21:00Overcast Clouds23°C11 mph, W100%10000m1006hPa49%
15-Jun-2024 00:00Broken Clouds16°C9 mph, NW70%10000m1009hPa65%
15-Jun-2024 03:00Overcast Clouds14°C9 mph, NW100%10000m1012hPa61%
15-Jun-2024 06:00Overcast Clouds12°C7 mph, NW100%10000m1012hPa61%
15-Jun-2024 09:00Overcast Clouds11°C4 mph, NW100%10000m1012hPa70%
15-Jun-2024 12:00Overcast Clouds13°C11 mph, NW100%10000m1013hPa56%
15-Jun-2024 15:00Overcast Clouds15°C11 mph, NW100%10000m1012hPa46%
15-Jun-2024 18:00Overcast Clouds16°C11 mph, NW100%10000m1011hPa36%
15-Jun-2024 21:00Broken Clouds18°C13 mph, NW69%10000m1011hPa33%
16-Jun-2024 00:00Scattered Clouds13°C9 mph, W37%10000m1012hPa47%
16-Jun-2024 03:00Scattered Clouds9°C7 mph, NW32%10000m1014hPa64%
16-Jun-2024 06:00Few Clouds8°C7 mph, W20%10000m1015hPa60%
16-Jun-2024 09:00Clear Sky8°C7 mph, W1%10000m1017hPa59%
16-Jun-2024 12:00Clear Sky15°C11 mph, NW0%10000m1018hPa40%
16-Jun-2024 15:00Clear Sky19°C13 mph, NW0%10000m1018hPa28%
16-Jun-2024 18:00Clear Sky22°C11 mph, NW0%10000m1017hPa25%
16-Jun-2024 21:00Clear Sky22°C9 mph, NW6%10000m1016hPa30%
17-Jun-2024 00:00Clear Sky16°C7 mph, SW9%10000m1017hPa63%
17-Jun-2024 03:00Broken Clouds14°C7 mph, SW84%10000m1017hPa52%
17-Jun-2024 06:00Overcast Clouds15°C7 mph, SW92%10000m1016hPa58%
17-Jun-2024 09:00Overcast Clouds13°C4 mph, SW100%10000m1016hPa61%
17-Jun-2024 12:00Overcast Clouds18°C4 mph, SW100%10000m1016hPa48%
17-Jun-2024 15:00Overcast Clouds24°C7 mph, SW100%10000m1014hPa33%
17-Jun-2024 18:00Broken Clouds27°C11 mph, W80%10000m1012hPa24%
17-Jun-2024 21:00Clear Sky27°C11 mph, SW7%10000m1011hPa41%
18-Jun-2024 00:00Scattered Clouds22°C9 mph, SW38%10000m1011hPa56%